Time;durP1;ratioP1;P1;durP2;ratioP2;P2;SDS_P1;SDS_P2;PMS_P1;PMS_P2;Temp;Humidity;BMP_temperature;BMP_pressure;BME280_temperature;BME280_humidity;BME280_pressure;Samples;Min_cycle;Max_cycle;Signal;HPM_P1;HPM_P2
2022/11/25 00:00:40;;;;;;;16.67;4.07;;;8.80;99.90;;;;;;4171259;28;20048;-64
2022/11/25 00:02:43;;;;;;;13.05;3.28;;;8.80;99.90;;;;;;4176446;28;20044;-64
2022/11/25 00:04:44;;;;;;;14.20;3.67;;;8.80;99.90;;;;;;4171087;28;20037;-64
2022/11/25 00:06:45;;;;;;;8.15;2.75;;;8.80;99.90;;;;;;4178489;28;20037;-64
2022/11/25 00:08:48;;;;;;;11.70;2.88;;;8.80;99.90;;;;;;4160825;28;20036;-64
2022/11/25 00:10:48;;;;;;;12.45;2.88;;;8.80;99.90;;;;;;4172236;28;20084;-64
2022/11/25 00:12:49;;;;;;;11.57;3.40;;;8.80;99.90;;;;;;4177056;28;20091;-64
2022/11/25 00:14:50;;;;;;;17.27;3.67;;;8.80;99.90;;;;;;4179518;28;20044;-65
2022/11/25 00:16:50;;;;;;;13.43;3.70;;;8.80;99.90;;;;;;4171119;28;20399;-65
2022/11/25 00:18:53;;;;;;;12.63;3.42;;;8.80;99.90;;;;;;4182290;28;20041;-64
2022/11/25 00:20:53;;;;;;;11.15;3.05;;;8.80;99.90;;;;;;4179431;28;20083;-64
2022/11/25 00:22:54;;;;;;;13.45;3.38;;;8.80;99.90;;;;;;4178332;28;20523;-64
2022/11/25 00:24:54;;;;;;;16.25;3.60;;;8.80;99.90;;;;;;4177956;28;20518;-64
2022/11/25 00:26:55;;;;;;;14.88;3.50;;;8.80;99.90;;;;;;4182592;28;20533;-64
2022/11/25 00:28:58;;;;;;;14.77;3.50;;;8.80;99.90;;;;;;4180017;28;20464;-64
2022/11/25 00:31:07;;;;;;;12.57;3.50;;;8.80;99.90;;;;;;4175900;28;20036;-64
2022/11/25 00:33:07;;;;;;;16.13;3.72;;;8.80;99.90;;;;;;4177698;28;20041;-64
2022/11/25 00:35:08;;;;;;;12.60;3.22;;;8.80;99.90;;;;;;4176866;28;20037;-65
2022/11/25 00:37:09;;;;;;;12.82;3.28;;;8.80;99.90;;;;;;4166416;28;20060;-64
2022/11/25 00:39:12;;;;;;;13.05;3.15;;;8.80;99.90;;;;;;4166123;28;20029;-64
2022/11/25 00:45:51;;;;;;;10.88;2.90;;;8.80;99.90;;;;;;4164144;28;20479;-64
2022/11/25 00:47:53;;;;;;;10.02;2.80;;;8.90;99.90;;;;;;4165620;28;20033;-64
2022/11/25 00:49:53;;;;;;;12.18;2.78;;;8.90;99.90;;;;;;4171118;28;20458;-64
2022/11/25 00:51:54;;;;;;;14.02;3.47;;;8.90;99.90;;;;;;4168013;28;20026;-64
2022/11/25 00:53:55;;;;;;;10.30;3.03;;;8.90;99.90;;;;;;4168238;28;20048;-64
2022/11/25 00:56:12;;;;;;;14.57;3.20;;;8.90;99.90;;;;;;4165855;28;20124;-63
2022/11/25 00:58:13;;;;;;;10.77;3.20;;;8.90;99.90;;;;;;4175501;28;20148;-64
2022/11/25 01:00:14;;;;;;;13.82;3.28;;;8.90;99.90;;;;;;4165810;28;20591;-63
2022/11/25 01:02:15;;;;;;;11.63;3.75;;;9.00;99.90;;;;;;4165807;28;20037;-64
2022/11/25 01:04:16;;;;;;;11.90;3.00;;;9.00;99.90;;;;;;4164692;28;20029;-64
2022/11/25 01:06:17;;;;;;;15.57;3.55;;;9.00;99.90;;;;;;4164734;28;20059;-64
2022/11/25 01:08:18;;;;;;;12.75;3.53;;;9.00;99.90;;;;;;4169512;28;21156;-64
2022/11/25 01:10:18;;;;;;;12.02;3.85;;;9.00;99.90;;;;;;4169855;28;20037;-65
2022/11/25 01:12:19;;;;;;;12.80;3.17;;;9.00;99.90;;;;;;4169881;28;20040;-64
2022/11/25 01:14:20;;;;;;;17.48;3.20;;;9.00;99.90;;;;;;4177063;28;20037;-64
2022/11/25 01:16:21;;;;;;;19.10;4.23;;;9.10;99.90;;;;;;4167752;28;20044;-64
2022/11/25 01:18:22;;;;;;;13.65;3.53;;;9.10;99.90;;;;;;4172678;28;20120;-64
2022/11/25 01:20:23;;;;;;;12.45;3.45;;;9.10;99.90;;;;;;4169364;28;20041;-64
2022/11/25 01:22:23;;;;;;;9.10;2.92;;;9.10;99.90;;;;;;4173633;28;20033;-64
2022/11/25 01:24:25;;;;;;;14.52;3.38;;;9.10;99.90;;;;;;4174975;28;20073;-64
2022/11/25 01:26:27;;;;;;;8.05;2.80;;;9.10;99.90;;;;;;4167209;28;20439;-64
2022/11/25 01:28:27;;;;;;;10.48;2.95;;;9.20;99.90;;;;;;4170068;28;20078;-64
2022/11/25 01:30:28;;;;;;;12.55;2.90;;;9.20;99.90;;;;;;4167447;28;20044;-64
2022/11/25 01:32:28;;;;;;;11.75;2.88;;;9.20;99.90;;;;;;4163980;28;20629;-64
2022/11/25 01:34:31;;;;;;;11.18;2.88;;;9.20;99.90;;;;;;4163487;28;20052;-64
2022/11/25 01:36:31;;;;;;;;;;;9.20;99.90;;;;;;4162875;28;20471;-64
2022/11/25 01:38:33;;;;;;;11.75;3.17;;;9.30;99.90;;;;;;4146034;28;20011;-64
2022/11/25 01:40:35;;;;;;;11.65;3.35;;;9.30;99.90;;;;;;4164791;28;20533;-64
2022/11/25 01:42:42;;;;;;;12.02;3.35;;;9.20;99.90;;;;;;4163482;28;20476;-64
2022/11/25 01:44:42;;;;;;;19.92;3.30;;;9.30;99.90;;;;;;4177270;28;20106;-64
2022/11/25 01:47:00;;;;;;;14.52;3.35;;;9.30;99.90;;;;;;4175140;28;20037;-64
2022/11/25 01:49:05;;;;;;;14.52;3.42;;;9.30;99.90;;;;;;4172657;28;20029;-64
2022/11/25 01:51:34;;;;;;;15.00;3.67;;;9.30;99.90;;;;;;4179146;28;20479;-64
2022/11/25 01:53:35;;;;;;;14.15;3.25;;;9.30;99.90;;;;;;4165494;28;20431;-64
2022/11/25 01:55:39;;;;;;;11.70;3.15;;;9.30;99.90;;;;;;4166007;28;20044;-64
2022/11/25 01:57:47;;;;;;;11.18;3.03;;;9.40;99.90;;;;;;4155914;28;20044;-64
2022/11/25 01:59:51;;;;;;;11.27;3.30;;;9.40;99.90;;;;;;4166833;28;20033;-64
2022/11/25 02:01:53;;;;;;;15.05;3.03;;;9.40;99.90;;;;;;4169046;28;20025;-64
2022/11/25 02:03:55;;;;;;;11.60;3.25;;;9.50;99.90;;;;;;4175828;28;20041;-64
2022/11/25 02:06:21;;;;;;;16.50;3.53;;;9.40;99.90;;;;;;4176514;28;20460;-64
2022/11/25 02:08:23;;;;;;;15.93;3.75;;;9.40;99.90;;;;;;4175216;28;20033;-64
2022/11/25 02:10:28;;;;;;;14.55;3.20;;;9.40;99.90;;;;;;4176508;28;20459;-64
2022/11/25 02:12:29;;;;;;;16.65;3.38;;;9.40;99.90;;;;;;4178159;28;20125;-64
2022/11/25 02:14:30;;;;;;;12.82;3.08;;;9.40;99.90;;;;;;4175836;28;20456;-65
2022/11/25 02:16:31;;;;;;;13.80;3.53;;;9.40;99.90;;;;;;4175046;28;20290;-64
2022/11/25 02:18:31;;;;;;;18.83;3.47;;;9.40;99.90;;;;;;4185679;28;20105;-65
2022/11/25 02:20:32;;;;;;;11.93;2.92;;;9.40;99.90;;;;;;4176547;28;20042;-64
2022/11/25 02:22:44;;;;;;;15.38;3.47;;;9.40;99.90;;;;;;4174945;28;20121;-65
2022/11/25 02:24:49;;;;;;;9.20;3.08;;;9.50;99.90;;;;;;4172809;28;20566;-64
2022/11/25 02:26:49;;;;;;;12.52;3.08;;;9.50;99.90;;;;;;4173653;28;20129;-65
2022/11/25 02:28:50;;;;;;;13.75;3.65;;;9.40;99.90;;;;;;4172783;28;20033;-65
2022/11/25 02:30:51;;;;;;;13.25;3.05;;;9.40;99.90;;;;;;4171515;28;20037;-64
2022/11/25 02:32:52;;;;;;;14.85;3.42;;;9.50;99.90;;;;;;4170917;28;20072;-64
2022/11/25 02:34:52;;;;;;;7.25;2.42;;;9.50;99.90;;;;;;4170625;28;20026;-65
2022/11/25 02:36:53;;;;;;;12.10;3.47;;;9.50;99.90;;;;;;4172053;28;20040;-65
2022/11/25 02:38:57;;;;;;;15.48;3.70;;;9.50;99.90;;;;;;4172194;28;20052;-64
2022/11/25 02:41:05;;;;;;;9.70;2.95;;;9.50;99.90;;;;;;4167046;28;20456;-64
2022/11/25 02:43:06;;;;;;;10.68;2.50;;;9.50;99.90;;;;;;4166026;28;20078;-64
2022/11/25 02:45:14;;;;;;;15.13;3.15;;;9.50;99.90;;;;;;4165224;28;20033;-65
2022/11/25 02:47:15;;;;;;;15.23;3.47;;;9.50;99.90;;;;;;4166486;28;20056;-64
2022/11/25 02:49:16;;;;;;;10.02;2.97;;;9.50;99.90;;;;;;4170443;28;20039;-64
2022/11/25 02:51:18;;;;;;;10.85;2.92;;;9.50;99.90;;;;;;4178265;28;20471;-64
2022/11/25 02:53:19;;;;;;;;;;;9.50;99.90;;;;;;4176638;28;20045;-65
2022/11/25 02:55:19;;;;;;;11.88;3.00;;;9.50;99.90;;;;;;4166456;28;19996;-65
2022/11/25 02:57:20;;;;;;;9.75;2.72;;;9.50;99.90;;;;;;4174945;28;20484;-64
2022/11/25 02:59:21;;;;;;;10.38;2.63;;;9.60;99.90;;;;;;4176353;28;20057;-64
2022/11/25 03:01:21;;;;;;;10.30;2.90;;;9.60;99.90;;;;;;4173237;28;20091;-65
2022/11/25 03:03:22;;;;;;;13.63;3.20;;;9.50;99.90;;;;;;4177711;28;20041;-65
2022/11/25 03:05:23;;;;;;;15.60;3.40;;;9.50;99.90;;;;;;4163767;28;20033;-64
2022/11/25 03:07:23;;;;;;;12.07;3.15;;;9.50;99.90;;;;;;4165795;28;20056;-64
2022/11/25 03:09:24;;;;;;;14.25;3.40;;;9.50;99.90;;;;;;4167487;28;20391;-64
2022/11/25 03:12:17;;;;;;;9.88;2.97;;;9.60;99.90;;;;;;4166586;28;20041;-64
2022/11/25 03:13:45;;;;;;;13.85;3.50;;;9.50;99.90;;;;;;4167635;28;20033;-64
2022/11/25 03:15:46;;;;;;;13.52;2.90;;;9.60;99.90;;;;;;4167603;28;20036;-64
2022/11/25 03:17:47;;;;;;;14.52;3.78;;;9.60;99.90;;;;;;4167630;28;20124;-64
2022/11/25 03:19:47;;;;;;;15.13;3.58;;;9.60;99.90;;;;;;4174554;28;20042;-64
2022/11/25 03:21:48;;;;;;;11.27;3.10;;;9.60;99.90;;;;;;4172211;28;20439;-64
2022/11/25 03:23:48;;;;;;;9.02;2.60;;;9.60;99.90;;;;;;4166666;28;20091;-64
2022/11/25 03:25:49;;;;;;;10.70;2.58;;;9.60;99.90;;;;;;4165532;28;20037;-64
2022/11/25 03:27:49;;;;;;;14.57;3.58;;;9.60;99.90;;;;;;4174281;28;20041;-64
2022/11/25 03:29:50;;;;;;;15.15;3.30;;;9.60;99.90;;;;;;4169664;28;20361;-65
2022/11/25 03:31:50;;;;;;;11.00;2.60;;;9.70;99.90;;;;;;4169144;28;20045;-65
2022/11/25 03:33:51;;;;;;;11.10;3.15;;;9.70;99.90;;;;;;4165639;28;20102;-65
2022/11/25 03:35:51;;;;;;;9.98;3.10;;;9.70;99.90;;;;;;4164856;28;20043;-66
2022/11/25 03:37:52;;;;;;;12.90;2.60;;;9.70;99.90;;;;;;4166266;28;20472;-66
2022/11/25 03:39:53;;;;;;;7.45;2.83;;;9.70;99.90;;;;;;4167889;28;20546;-66
2022/11/25 03:41:53;;;;;;;10.88;2.60;;;9.70;99.90;;;;;;4179244;28;20352;-66
2022/11/25 03:43:54;;;;;;;10.15;2.78;;;9.70;99.90;;;;;;4177757;28;20120;-67
2022/11/25 03:45:55;;;;;;;12.18;2.53;;;9.70;99.90;;;;;;4168571;28;20376;-67
2022/11/25 03:47:55;;;;;;;9.80;2.80;;;9.70;99.90;;;;;;4173124;28;20060;-67
2022/11/25 03:49:56;;;;;;;10.15;2.63;;;9.70;99.90;;;;;;4178548;28;20477;-67
2022/11/25 03:51:57;;;;;;;8.50;2.67;;;9.70;99.90;;;;;;4171634;28;20107;-67
2022/11/25 03:53:57;;;;;;;9.30;2.47;;;9.80;99.90;;;;;;4180423;28;20048;-68
2022/11/25 03:55:58;;;;;;;10.55;2.80;;;9.80;99.90;;;;;;4174672;28;20032;-68
2022/11/25 03:57:59;;;;;;;10.45;3.15;;;9.80;99.90;;;;;;4172599;28;20043;-67
2022/11/25 04:00:00;;;;;;;8.93;2.25;;;9.80;99.90;;;;;;4176931;28;20029;-68
2022/11/25 04:02:01;;;;;;;8.93;2.55;;;9.80;99.90;;;;;;4172024;28;20033;-68
2022/11/25 04:04:02;;;;;;;11.18;2.78;;;9.80;99.90;;;;;;4181998;28;20033;-67
2022/11/25 04:06:03;;;;;;;10.18;2.65;;;9.80;99.90;;;;;;4175680;28;20408;-67
2022/11/25 04:08:04;;;;;;;15.88;3.25;;;9.80;99.90;;;;;;4173855;28;20052;-67
2022/11/25 04:10:05;;;;;;;17.52;3.42;;;9.80;99.90;;;;;;4175513;28;20025;-67
2022/11/25 04:14:25;;;;;;;11.25;3.05;;;9.70;99.90;;;;;;4174607;28;20533;-66
2022/11/25 04:16:25;;;;;;;11.52;3.03;;;9.70;99.90;;;;;;4176202;28;20048;-67
2022/11/25 04:18:26;;;;;;;7.00;2.63;;;9.70;99.90;;;;;;4174471;28;20033;-67
2022/11/25 04:20:26;;;;;;;11.40;2.90;;;9.70;99.90;;;;;;4176632;28;20560;-67
2022/11/25 04:22:27;;;;;;;16.40;3.33;;;9.60;99.90;;;;;;4174839;28;20033;-67
2022/11/25 04:24:28;;;;;;;10.70;2.65;;;9.60;99.90;;;;;;4175544;28;20128;-67
2022/11/25 04:26:28;;;;;;;11.60;2.90;;;9.60;99.90;;;;;;4165587;28;20060;-67
2022/11/25 04:28:29;;;;;;;14.20;3.38;;;9.60;99.90;;;;;;4178699;28;20037;-67
2022/11/25 04:30:30;;;;;;;9.95;2.65;;;9.60;99.90;;;;;;4166874;28;20447;-68
2022/11/25 04:32:30;;;;;;;16.02;3.53;;;9.60;99.90;;;;;;4174900;28;20468;-68
2022/11/25 04:34:31;;;;;;;10.93;3.30;;;9.60;99.90;;;;;;4178075;28;20079;-68
2022/11/25 04:36:32;;;;;;;10.13;3.00;;;9.60;99.90;;;;;;4174823;28;20478;-67
2022/11/25 04:38:32;;;;;;;8.40;2.95;;;9.60;99.90;;;;;;4160738;28;20046;-67
2022/11/25 04:40:33;;;;;;;11.23;2.67;;;9.60;99.90;;;;;;4169685;28;20103;-68
2022/11/25 04:42:35;;;;;;;11.27;2.85;;;9.60;99.90;;;;;;4174561;28;20092;-67
2022/11/25 04:44:35;;;;;;;8.27;2.60;;;9.60;99.90;;;;;;4173520;28;20069;-67
2022/11/25 04:46:40;;;;;;;8.23;2.38;;;9.60;99.90;;;;;;4176318;28;20086;-67
2022/11/25 04:48:40;;;;;;;9.23;2.47;;;9.60;99.90;;;;;;4171980;28;20484;-67
2022/11/25 04:50:41;;;;;;;11.02;2.92;;;9.70;99.90;;;;;;4180987;28;20033;-67
2022/11/25 04:52:42;;;;;;;8.77;3.00;;;9.70;99.90;;;;;;4176208;28;20460;-67
2022/11/25 04:54:42;;;;;;;8.50;2.83;;;9.70;99.90;;;;;;4179418;28;20058;-67
2022/11/25 04:56:43;;;;;;;8.35;2.50;;;9.70;99.90;;;;;;4170247;28;20041;-67
2022/11/25 05:01:03;;;;;;;8.48;2.63;;;9.70;99.90;;;;;;4172354;28;20047;-68
2022/11/25 05:03:03;;;;;;;10.73;2.83;;;9.60;99.90;;;;;;4170064;28;20100;-68
2022/11/25 05:05:05;;;;;;;10.35;2.97;;;9.70;99.90;;;;;;4175357;28;20025;-68
2022/11/25 05:07:05;;;;;;;8.88;3.05;;;9.60;99.90;;;;;;4174458;28;20049;-67
2022/11/25 05:09:06;;;;;;;11.35;2.50;;;9.70;99.90;;;;;;4171325;28;20045;-68
2022/11/25 05:11:06;;;;;;;11.50;3.33;;;9.60;99.90;;;;;;4178853;28;20058;-67
2022/11/25 05:13:07;;;;;;;9.10;3.03;;;9.60;99.90;;;;;;4173808;28;20064;-67
2022/11/25 05:15:08;;;;;;;13.63;3.65;;;9.60;99.90;;;;;;4168323;28;20025;-68
2022/11/25 05:17:13;;;;;;;12.32;3.50;;;9.50;99.90;;;;;;4174317;28;20037;-67
2022/11/25 05:19:13;;;;;;;9.10;3.00;;;9.60;99.90;;;;;;4174879;28;20037;-67
2022/11/25 05:21:14;;;;;;;10.68;2.70;;;9.50;99.90;;;;;;4172309;28;20082;-66
2022/11/25 05:23:14;;;;;;;9.80;2.53;;;9.50;99.90;;;;;;4169736;28;20022;-67
2022/11/25 05:25:15;;;;;;;8.07;2.90;;;9.50;99.90;;;;;;4172388;28;20029;-67
2022/11/25 05:27:16;;;;;;;9.02;2.60;;;9.50;99.90;;;;;;4171377;28;20048;-67
2022/11/25 05:29:17;;;;;;;12.27;2.40;;;9.50;99.90;;;;;;4176255;28;20638;-67
2022/11/25 05:31:18;;;;;;;10.00;2.95;;;9.60;99.90;;;;;;4176434;28;20119;-67
2022/11/25 05:33:18;;;;;;;11.20;3.00;;;9.60;99.90;;;;;;4170458;28;20041;-67
2022/11/25 05:35:20;;;;;;;9.23;2.97;;;9.60;99.90;;;;;;4173938;28;20041;-67
2022/11/25 05:37:21;;;;;;;8.35;2.42;;;9.60;99.90;;;;;;4173603;28;20041;-67
2022/11/25 05:39:21;;;;;;;9.98;2.53;;;9.60;99.90;;;;;;4171168;28;21287;-67
2022/11/25 05:41:23;;;;;;;6.80;2.10;;;9.60;99.90;;;;;;4172313;28;20049;-67
2022/11/25 05:43:23;;;;;;;8.40;2.50;;;9.70;99.90;;;;;;4174887;28;20033;-67
2022/11/25 05:45:24;;;;;;;7.75;2.33;;;9.60;99.90;;;;;;4168978;28;20029;-67
2022/11/25 05:47:24;;;;;;;8.45;2.80;;;9.60;99.90;;;;;;4170530;28;20041;-67
2022/11/25 05:49:25;;;;;;;12.02;3.17;;;9.70;99.90;;;;;;4175092;28;20047;-67
2022/11/25 05:51:27;;;;;;;10.85;2.67;;;9.60;99.90;;;;;;4166253;28;20030;-68
2022/11/25 05:53:28;;;;;;;7.53;2.60;;;9.60;99.90;;;;;;4160717;28;20499;-67
2022/11/25 05:55:29;;;;;;;9.02;2.72;;;9.60;99.90;;;;;;4157893;28;20643;-67
2022/11/25 05:57:30;;;;;;;5.55;2.40;;;9.70;99.90;;;;;;4175402;28;20033;-67
2022/11/25 05:59:31;;;;;;;11.05;2.90;;;9.60;99.90;;;;;;4171126;28;20033;-68
2022/11/25 06:01:32;;;;;;;6.32;2.30;;;9.70;99.90;;;;;;4165471;28;20119;-68
2022/11/25 06:03:32;;;;;;;10.32;2.60;;;9.70;99.90;;;;;;4172607;28;20033;-67
2022/11/25 06:05:34;;;;;;;8.75;2.55;;;9.70;99.90;;;;;;4164671;28;20163;-67
2022/11/25 06:07:34;;;;;;;8.35;2.40;;;9.70;99.90;;;;;;4175736;28;20148;-67
2022/11/25 06:09:35;;;;;;;11.68;2.30;;;9.70;99.90;;;;;;4179151;28;20084;-67
2022/11/25 06:11:36;;;;;;;7.53;2.45;;;9.70;99.90;;;;;;4174483;28;20060;-67
2022/11/25 06:13:37;;;;;;;8.98;2.65;;;9.70;99.90;;;;;;4177372;28;20033;-67
2022/11/25 06:15:42;;;;;;;7.10;2.40;;;9.70;99.90;;;;;;4164998;28;20044;-67
2022/11/25 06:17:43;;;;;;;7.22;2.50;;;9.70;99.90;;;;;;4168139;28;20595;-67
2022/11/25 06:19:43;;;;;;;7.40;2.83;;;9.70;99.90;;;;;;4168187;28;20060;-67
2022/11/25 06:21:44;;;;;;;5.95;2.00;;;9.70;99.90;;;;;;4164887;28;20037;-67
2022/11/25 06:23:45;;;;;;;7.30;2.38;;;9.70;99.90;;;;;;4165536;28;20115;-67
2022/11/25 06:25:46;;;;;;;8.23;2.85;;;9.70;99.90;;;;;;4165680;28;20059;-68
2022/11/25 06:27:46;;;;;;;8.63;2.97;;;9.70;99.90;;;;;;4166465;28;20041;-67
2022/11/25 06:29:47;;;;;;;7.22;2.67;;;9.70;99.90;;;;;;4165554;28;20471;-67
2022/11/25 06:31:48;;;;;;;10.32;3.47;;;9.70;99.90;;;;;;4165831;28;20029;-67
2022/11/25 06:33:51;;;;;;;11.70;2.88;;;9.70;99.90;;;;;;4163964;28;20158;-66
2022/11/25 06:35:51;;;;;;;9.75;2.85;;;9.70;99.90;;;;;;4165253;28;20518;-67
2022/11/25 06:37:52;;;;;;;11.40;3.10;;;9.70;99.90;;;;;;4148954;28;20045;-71
2022/11/25 06:39:52;;;;;;;12.88;4.35;;;9.70;99.90;;;;;;4166082;28;20057;-69
2022/11/25 06:41:54;;;;;;;10.18;3.40;;;9.70;99.90;;;;;;4165451;28;20128;-70
2022/11/25 06:43:55;;;;;;;12.70;3.35;;;9.70;99.90;;;;;;4165838;28;20092;-70
2022/11/25 06:46:05;;;;;;;13.52;3.45;;;9.70;99.90;;;;;;4163979;28;20053;-70
2022/11/25 06:48:05;;;;;;;9.00;3.03;;;9.70;99.90;;;;;;4167654;28;20075;-69
2022/11/25 06:50:06;;;;;;;6.00;2.50;;;9.70;99.90;;;;;;4167114;28;20037;-70
2022/11/25 06:52:07;;;;;;;7.72;3.03;;;9.70;99.90;;;;;;4163928;28;20033;-69
2022/11/25 06:54:09;;;;;;;10.38;2.58;;;9.70;99.90;;;;;;4164154;28;20041;-70
2022/11/25 06:56:19;;;;;;;9.32;3.17;;;9.70;99.90;;;;;;4164332;28;20142;-68
2022/11/25 06:58:19;;;;;;;6.78;2.80;;;9.70;99.90;;;;;;4165480;28;20426;-69
2022/11/25 07:00:20;;;;;;;7.57;2.65;;;9.70;99.90;;;;;;4166586;28;20049;-69
2022/11/25 07:02:21;;;;;;;7.35;2.92;;;9.70;99.90;;;;;;4169301;28;20051;-69
2022/11/25 07:04:21;;;;;;;8.27;2.50;;;9.70;99.90;;;;;;4168849;28;20029;-69
2022/11/25 07:06:22;;;;;;;9.07;2.80;;;9.70;99.90;;;;;;4166597;28;20049;-68
2022/11/25 07:08:24;;;;;;;7.07;2.38;;;9.70;99.90;;;;;;4151714;28;20060;-69
2022/11/25 07:10:24;;;;;;;9.47;2.80;;;9.70;99.90;;;;;;4167191;28;20463;-69
2022/11/25 07:12:25;;;;;;;9.90;2.72;;;9.70;99.90;;;;;;4168281;28;20041;-69
2022/11/25 07:14:26;;;;;;;8.43;2.80;;;9.70;99.90;;;;;;4168941;28;20045;-68
2022/11/25 07:16:27;;;;;;;6.82;2.38;;;9.70;99.90;;;;;;4160367;28;20084;-67
2022/11/25 07:18:33;;;;;;;9.87;2.73;;;9.70;99.90;;;;;;4168293;28;20029;-69
2022/11/25 07:20:33;;;;;;;7.15;2.38;;;9.70;99.90;;;;;;4169780;28;20267;-69
2022/11/25 07:22:34;;;;;;;8.55;3.42;;;9.70;99.90;;;;;;4163419;28;20037;-69
2022/11/25 07:24:34;;;;;;;9.52;3.67;;;9.70;99.90;;;;;;4168476;28;20119;-69
2022/11/25 07:26:37;;;;;;;11.27;4.50;;;9.70;99.90;;;;;;4165723;28;20049;-69
2022/11/25 07:28:38;;;;;;;12.75;5.13;;;9.70;99.90;;;;;;4151847;28;20083;-69
2022/11/25 07:30:38;;;;;;;14.85;7.47;;;9.70;99.90;;;;;;4164463;28;20038;-69
2022/11/25 07:32:39;;;;;;;16.95;8.18;;;9.70;99.90;;;;;;4167292;28;20045;-69
2022/11/25 07:34:39;;;;;;;19.40;9.43;;;9.70;99.90;;;;;;4164803;28;20545;-68
2022/11/25 07:36:40;;;;;;;15.10;8.95;;;9.70;99.90;;;;;;4166094;28;20394;-68
2022/11/25 07:38:41;;;;;;;13.30;7.93;;;9.70;99.90;;;;;;4165782;28;20131;-67
2022/11/25 07:40:41;;;;;;;12.57;6.63;;;9.70;99.90;;;;;;4165813;28;20369;-69
2022/11/25 07:42:42;;;;;;;14.65;6.70;;;9.60;99.90;;;;;;4166607;28;20030;-68
2022/11/25 07:44:43;;;;;;;10.95;5.50;;;9.60;99.90;;;;;;4166755;28;20593;-69
2022/11/25 07:46:47;;;;;;;9.20;4.97;;;9.60;99.90;;;;;;4165417;28;20146;-68
2022/11/25 07:48:48;;;;;;;12.90;5.25;;;9.60;99.90;;;;;;4150557;28;20121;-68
2022/11/25 07:50:49;;;;;;;7.93;4.97;;;9.50;99.90;;;;;;4167312;28;20033;-68
2022/11/25 07:52:49;;;;;;;9.75;5.63;;;9.60;99.90;;;;;;4168275;28;20045;-68
2022/11/25 07:54:51;;;;;;;8.98;5.60;;;9.60;99.90;;;;;;4167737;28;20029;-69
2022/11/25 07:56:52;;;;;;;8.88;4.82;;;9.60;99.90;;;;;;4169451;28;20097;-69
2022/11/25 07:58:53;;;;;;;10.07;4.80;;;9.60;99.90;;;;;;4169974;28;20038;-68
2022/11/25 08:00:54;;;;;;;11.50;5.10;;;9.60;99.90;;;;;;4170983;28;20116;-68
2022/11/25 08:02:54;;;;;;;10.15;4.88;;;9.60;99.90;;;;;;4167123;28;20471;-69
2022/11/25 08:04:55;;;;;;;8.85;4.65;;;9.60;99.90;;;;;;4166703;28;20091;-69
2022/11/25 08:06:55;;;;;;;12.43;4.22;;;9.60;99.90;;;;;;4166231;28;20049;-69
2022/11/25 08:08:57;;;;;;;8.60;3.95;;;9.60;99.90;;;;;;4167518;28;20069;-69
2022/11/25 08:10:57;;;;;;;6.90;3.45;;;9.70;99.90;;;;;;4164947;28;20042;-69
2022/11/25 08:12:58;;;;;;;7.78;2.97;;;9.70;99.90;;;;;;4169326;28;20051;-67
2022/11/25 08:14:58;;;;;;;8.65;3.55;;;9.80;99.90;;;;;;4168949;28;20481;-68
2022/11/25 08:16:59;;;;;;;10.60;3.88;;;10.00;99.90;;;;;;4168330;28;20551;-69
2022/11/25 08:19:02;;;;;;;7.40;2.97;;;10.10;99.90;;;;;;4166668;28;21154;-69
2022/11/25 08:21:04;;;;;;;;;;;10.20;99.90;;;;;;4168367;28;20442;-69
2022/11/25 08:23:04;;;;;;;6.18;2.40;;;10.30;99.90;;;;;;4168692;28;20382;-69
2022/11/25 08:25:05;;;;;;;10.50;3.00;;;10.50;99.90;;;;;;4168026;28;20114;-69
2022/11/25 08:27:06;;;;;;;9.13;2.65;;;10.60;99.90;;;;;;4168741;28;20095;-69
2022/11/25 08:29:08;;;;;;;9.90;3.08;;;10.60;99.90;;;;;;4170165;28;20037;-68
2022/11/25 08:31:22;;;;;;;5.43;2.50;;;10.70;99.90;;;;;;4168727;28;20394;-68
2022/11/25 08:33:22;;;;;;;10.75;3.30;;;10.70;99.90;;;;;;4167196;28;20068;-68
2022/11/25 08:35:23;;;;;;;6.90;2.78;;;10.70;99.90;;;;;;4166953;28;20041;-68
2022/11/25 08:37:24;;;;;;;11.05;3.05;;;10.70;99.90;;;;;;4169832;28;20045;-68
2022/11/25 08:39:24;;;;;;;8.68;2.72;;;10.70;99.90;;;;;;4170784;28;20125;-68
2022/11/25 08:41:29;;;;;;;9.20;2.75;;;10.60;99.90;;;;;;4167898;28;20045;-69
2022/11/25 08:43:29;;;;;;;12.02;2.95;;;10.70;99.90;;;;;;4166600;28;20041;-68
2022/11/25 08:45:30;;;;;;;9.48;2.88;;;10.70;99.90;;;;;;4167016;28;20116;-69
2022/11/25 08:47:30;;;;;;;5.65;2.40;;;10.70;99.90;;;;;;4152117;28;20045;-68
2022/11/25 08:49:31;;;;;;;8.02;2.50;;;10.70;99.90;;;;;;4170428;28;20048;-69
2022/11/25 08:51:34;;;;;;;9.77;2.90;;;10.70;99.90;;;;;;4167952;28;20083;-70
2022/11/25 08:53:35;;;;;;;10.55;2.95;;;10.80;99.90;;;;;;4165314;28;20048;-68
2022/11/25 08:55:37;;;;;;;7.25;2.55;;;11.00;99.90;;;;;;4151017;28;20528;-68
2022/11/25 08:57:38;;;;;;;6.10;2.78;;;11.10;99.90;;;;;;4164510;28;20029;-69
2022/11/25 08:59:39;;;;;;;6.32;2.03;;;11.30;99.90;;;;;;4166705;28;20041;-69
2022/11/25 09:01:39;;;;;;;9.50;2.78;;;11.60;99.90;;;;;;4172309;28;20029;-68
2022/11/25 09:03:43;;;;;;;5.10;2.22;;;11.70;99.90;;;;;;4165005;28;20041;-69
2022/11/25 09:05:44;;;;;;;7.50;2.15;;;11.90;99.90;;;;;;4162049;28;20041;-68
2022/11/25 09:07:45;;;;;;;6.13;2.47;;;12.20;99.90;;;;;;4164096;28;20045;-68
2022/11/25 09:09:45;;;;;;;8.35;2.42;;;12.30;99.90;;;;;;4163852;28;20060;-69
2022/11/25 09:11:46;;;;;;;5.55;2.30;;;12.40;99.90;;;;;;4165589;28;20037;-69
2022/11/25 09:13:46;;;;;;;7.13;2.47;;;12.70;99.90;;;;;;4168074;28;20426;-68
2022/11/25 09:15:47;;;;;;;6.30;2.42;;;12.80;99.90;;;;;;4168358;28;20029;-69
2022/11/25 09:17:47;;;;;;;5.43;1.90;;;13.10;99.90;;;;;;4170929;28;20029;-69
2022/11/25 09:19:48;;;;;;;6.90;2.63;;;13.10;99.90;;;;;;4146289;28;20441;-68
2022/11/25 09:21:49;;;;;;;7.28;2.65;;;13.20;99.90;;;;;;4161388;28;20388;-69
2022/11/25 09:23:51;;;;;;;8.40;2.67;;;13.10;99.90;;;;;;4168095;28;20361;-68
2022/11/25 09:25:56;;;;;;;5.53;2.10;;;13.10;99.90;;;;;;4163293;28;20036;-69
2022/11/25 09:27:57;;;;;;;3.83;1.85;;;13.00;99.90;;;;;;4167873;28;20040;-69
2022/11/25 09:29:57;;;;;;;6.63;2.30;;;12.90;99.90;;;;;;4149892;28;20719;-67
2022/11/25 09:31:58;;;;;;;6.38;2.10;;;12.80;99.90;;;;;;4165950;28;20041;-68
2022/11/25 09:33:59;;;;;;;4.55;2.13;;;12.60;99.90;;;;;;4166228;28;20045;-69
2022/11/25 09:36:00;;;;;;;8.80;2.13;;;12.40;99.90;;;;;;4165450;28;20029;-68
2022/11/25 09:38:01;;;;;;;9.77;2.30;;;12.40;99.90;;;;;;4168025;28;20065;-68
2022/11/25 09:40:03;;;;;;;12.00;2.72;;;12.20;99.90;;;;;;4166342;28;20048;-68
2022/11/25 09:47:32;;;;;;;7.63;2.13;;;11.90;99.90;;;;;;4168157;28;20049;-68
2022/11/25 09:50:01;;;;;;;6.38;2.38;;;11.80;99.90;;;;;;4165995;28;20480;-69
2022/11/25 09:52:14;;;;;;;8.57;2.40;;;11.80;99.90;;;;;;4150274;28;20089;-68
2022/11/25 09:54:20;;;;;;;9.27;3.00;;;11.80;99.90;;;;;;4168520;28;20135;-68
2022/11/25 09:56:32;;;;;;;7.93;2.78;;;11.70;99.90;;;;;;4164202;28;20429;-68
2022/11/25 09:58:47;;;;;;;9.40;2.42;;;11.80;99.90;;;;;;4168473;28;20106;-68
2022/11/25 10:00:49;;;;;;;5.68;1.85;;;11.80;99.90;;;;;;4166386;28;20045;-67
2022/11/25 10:03:09;;;;;;;;;;;11.80;99.90;;;;;;4169438;28;20115;-67
2022/11/25 10:05:22;;;;;;;11.85;2.80;;;11.80;99.90;;;;;;4164535;28;19954;-67
2022/11/25 10:07:37;;;;;;;4.82;1.90;;;11.80;99.90;;;;;;4163422;28;20083;-67
2022/11/25 10:09:37;;;;;;;8.27;2.50;;;11.80;99.90;;;;;;4168328;28;20088;-67
2022/11/25 10:11:50;;;;;;;13.38;2.78;;;11.80;99.90;;;;;;4161093;28;20025;-67
2022/11/25 10:13:58;;;;;;;;;;;11.90;99.90;;;;;;4163058;28;20048;-67
2022/11/25 10:16:05;;;;;;;7.55;2.15;;;11.80;99.90;;;;;;4161066;28;20783;-67
2022/11/25 10:18:17;;;;;;;7.80;2.47;;;11.90;99.90;;;;;;4163815;28;20091;-67
2022/11/25 10:20:45;;;;;;;5.65;2.00;;;11.80;99.90;;;;;;4166541;28;20028;-67
2022/11/25 10:22:59;;;;;;;8.65;2.20;;;11.90;99.90;;;;;;4166644;28;22746;-67
2022/11/25 10:25:06;;;;;;;4.95;2.15;;;12.00;99.90;;;;;;4165471;28;20032;-66
2022/11/25 10:27:14;;;;;;;7.45;2.75;;;12.00;99.90;;;;;;4168633;28;20036;-67
2022/11/25 10:29:37;;;;;;;8.73;2.55;;;12.00;99.90;;;;;;4165189;28;20038;-67
2022/11/25 10:31:38;;;;;;;15.80;3.75;;;12.10;99.90;;;;;;4164151;28;20086;-67
2022/11/25 10:33:46;;;;;;;11.13;3.13;;;12.10;99.90;;;;;;4165822;28;20065;-67
2022/11/25 10:35:56;;;;;;;6.30;2.60;;;12.10;99.90;;;;;;4163631;28;20365;-67
2022/11/25 10:38:00;;;;;;;8.52;2.92;;;12.10;99.90;;;;;;4171098;28;20037;-68
2022/11/25 10:40:01;;;;;;;11.18;2.53;;;12.20;99.90;;;;;;4161266;28;20507;-67
2022/11/25 10:42:11;;;;;;;10.63;2.83;;;12.20;99.90;;;;;;4170664;28;20045;-67
2022/11/25 10:44:26;;;;;;;8.32;2.60;;;12.20;99.90;;;;;;4169667;28;20036;-67
2022/11/25 10:46:51;;;;;;;9.38;2.67;;;12.20;99.90;;;;;;4165459;28;20052;-68
2022/11/25 10:49:18;;;;;;;9.75;2.80;;;12.10;99.90;;;;;;4167946;28;20110;-67
2022/11/25 10:51:41;;;;;;;12.50;2.58;;;12.20;99.90;;;;;;4160762;28;20061;-67
2022/11/25 10:54:27;;;;;;;8.32;2.88;;;12.20;99.90;;;;;;4169739;28;20033;-67
2022/11/25 10:56:28;;;;;;;9.65;2.70;;;12.20;99.90;;;;;;4159462;28;20036;-67